createdAt,value
2023-01-27T00:01:16.907Z,31.23
2023-01-27T00:03:44.161Z,30.73
2023-01-27T00:06:13.779Z,31.63
2023-01-27T00:08:40.880Z,33.60
2023-01-27T00:11:26.365Z,29.00
2023-01-27T00:13:53.394Z,24.80
2023-01-27T00:16:20.441Z,28.73
2023-01-27T00:18:47.482Z,34.45
2023-01-27T00:21:33.040Z,29.23
2023-01-27T00:24:18.244Z,31.13
2023-01-27T00:26:45.071Z,31.20
2023-01-27T00:29:11.938Z,29.35
2023-01-27T00:31:57.259Z,26.83
2023-01-27T00:34:24.062Z,28.95
2023-01-27T00:36:51.058Z,30.30
2023-01-27T00:39:17.999Z,27.65
2023-01-27T00:41:44.806Z,28.35
2023-01-27T00:44:13.373Z,27.15
2023-01-27T00:46:41.559Z,31.90
2023-01-27T00:49:09.715Z,31.45
2023-01-27T00:51:36.909Z,33.38
2023-01-27T00:54:05.175Z,36.50
2023-01-27T00:56:32.371Z,31.02
2023-01-27T00:58:59.317Z,32.30
2023-01-27T01:01:26.305Z,32.67
2023-01-27T01:03:53.102Z,31.67
2023-01-27T01:06:20.576Z,36.25
2023-01-27T01:08:48.494Z,30.50
2023-01-27T01:11:16.640Z,31.05
2023-01-27T01:13:44.833Z,28.67
2023-01-27T01:16:20.594Z,27.77
2023-01-27T01:18:48.117Z,28.73
2023-01-27T01:21:15.865Z,35.78
2023-01-27T01:23:44.587Z,26.40
2023-01-27T01:26:13.062Z,31.02
2023-01-27T01:28:40.392Z,31.15
2023-01-27T01:31:09.462Z,30.10
2023-01-27T01:33:36.709Z,29.05
2023-01-27T01:36:08.999Z,26.48
2023-01-27T01:41:03.478Z,24.42
2023-01-27T01:43:30.339Z,26.05
2023-01-27T01:45:59.188Z,27.17
2023-01-27T01:48:47.460Z,25.35
2023-01-27T01:51:45.697Z,27.35
2023-01-27T01:54:15.184Z,23.45
2023-01-27T01:56:55.557Z,27.92
2023-01-27T01:59:43.697Z,24.30
2023-01-27T02:02:14.463Z,32.42
2023-01-27T02:04:50.194Z,30.02
2023-01-27T02:07:26.810Z,26.10
2023-01-27T02:09:56.986Z,26.75
2023-01-27T02:12:23.843Z,31.55
2023-01-27T02:14:50.710Z,28.45
2023-01-27T02:17:17.780Z,27.27
2023-01-27T02:20:09.445Z,25.92
2023-01-27T02:22:58.012Z,28.23
2023-01-27T02:25:41.300Z,32.15
2023-01-27T02:28:08.834Z,30.02
2023-01-27T02:30:35.844Z,29.13
2023-01-27T02:33:02.704Z,29.50
2023-01-27T02:35:38.174Z,27.65
2023-01-27T02:38:06.999Z,30.02
2023-01-27T02:40:34.532Z,26.75
2023-01-27T02:43:04.640Z,31.70
2023-01-27T02:45:31.870Z,31.15
2023-01-27T02:47:58.817Z,32.72
2023-01-27T02:50:26.076Z,30.98
2023-01-27T02:52:52.908Z,32.50
2023-01-27T02:55:19.770Z,27.88
2023-01-27T02:57:46.646Z,26.67
2023-01-27T03:00:13.922Z,30.02
2023-01-27T03:02:40.847Z,25.65
2023-01-27T03:05:08.075Z,29.55
2023-01-27T03:07:37.697Z,27.35
2023-01-27T03:10:04.904Z,28.20
2023-01-27T03:12:31.953Z,28.75
2023-01-27T03:15:17.360Z,29.92
2023-01-27T03:18:03.124Z,29.27
2023-01-27T03:20:29.980Z,27.83
2023-01-27T03:22:57.010Z,30.50
2023-01-27T03:25:23.904Z,28.27
2023-01-27T03:27:51.256Z,29.00
2023-01-27T03:30:18.291Z,26.23
2023-01-27T03:32:47.895Z,27.27
2023-01-27T03:35:15.996Z,28.52
2023-01-27T03:38:02.748Z,29.55
2023-01-27T03:40:48.011Z,27.02
2023-01-27T03:43:33.378Z,33.63
2023-01-27T03:46:19.392Z,34.65
2023-01-27T03:48:51.809Z,32.53
2023-01-27T03:53:47.208Z,29.80
2023-01-27T03:56:15.022Z,29.08
2023-01-27T03:58:42.634Z,31.33
2023-01-27T04:01:14.478Z,28.50
2023-01-27T04:04:00.960Z,29.10
2023-01-27T04:06:49.887Z,27.73
2023-01-27T04:09:41.526Z,27.35
2023-01-27T04:12:12.780Z,27.77
2023-01-27T04:17:24.835Z,28.38
2023-01-27T04:19:51.810Z,29.77
2023-01-27T04:22:18.748Z,32.80
2023-01-27T04:24:45.636Z,33.17
2023-01-27T04:27:13.976Z,27.50
2023-01-27T04:29:42.668Z,26.48
2023-01-27T04:32:14.015Z,29.77
2023-01-27T04:34:41.563Z,26.38
2023-01-27T04:37:09.547Z,34.97
2023-01-27T04:39:36.809Z,24.42
2023-01-27T04:42:03.874Z,27.02
2023-01-27T04:44:31.223Z,28.63
2023-01-27T04:46:58.092Z,29.50
2023-01-27T04:49:26.909Z,29.67
2023-01-27T04:51:54.490Z,36.25
2023-01-27T04:54:21.642Z,28.35
2023-01-27T04:56:59.911Z,30.45
2023-01-27T04:59:27.136Z,28.98
2023-01-27T05:01:54.371Z,32.97
2023-01-27T05:04:21.508Z,29.02
2023-01-27T05:06:48.691Z,33.42
2023-01-27T05:09:15.511Z,30.13
2023-01-27T05:11:42.228Z,30.80
2023-01-27T05:14:09.012Z,29.10
2023-01-27T05:16:38.144Z,29.08
2023-01-27T05:19:05.292Z,28.92
2023-01-27T05:21:32.249Z,28.83
2023-01-27T05:23:59.037Z,35.90
2023-01-27T05:26:28.076Z,32.50
2023-01-27T05:28:57.366Z,46.45
2023-01-27T05:31:27.789Z,30.85
2023-01-27T05:33:55.824Z,31.58
2023-01-27T05:36:24.842Z,30.35
2023-01-27T05:38:52.173Z,35.22
2023-01-27T05:41:19.888Z,32.65
2023-01-27T05:43:50.991Z,33.80
2023-01-27T05:46:23.953Z,40.42
2023-01-27T05:48:53.328Z,31.70
2023-01-27T05:51:21.811Z,31.05
2023-01-27T05:53:48.941Z,29.10
2023-01-27T05:56:18.253Z,30.98
2023-01-27T05:58:45.507Z,33.67
2023-01-27T06:01:22.729Z,31.98
2023-01-27T06:03:50.164Z,32.70
2023-01-27T06:06:20.216Z,32.38
2023-01-27T06:08:48.482Z,36.80
2023-01-27T06:11:16.945Z,31.40
2023-01-27T06:13:43.905Z,30.80
2023-01-27T06:16:14.040Z,31.73
2023-01-27T06:18:41.463Z,29.73
2023-01-27T06:21:10.206Z,32.95
2023-01-27T06:23:37.856Z,29.80
2023-01-27T06:26:09.481Z,37.78
2023-01-27T06:28:37.413Z,31.65
2023-01-27T06:31:09.366Z,35.42
2023-01-27T06:33:37.048Z,31.23
2023-01-27T06:36:08.220Z,31.83
2023-01-27T06:38:35.224Z,32.95
2023-01-27T06:41:02.387Z,31.95
2023-01-27T06:46:14.640Z,36.35
2023-01-27T06:48:42.147Z,37.72
2023-01-27T06:51:09.893Z,31.83
2023-01-27T06:53:41.465Z,33.28
2023-01-27T06:56:08.592Z,25.52
2023-01-27T06:58:36.959Z,30.85
2023-01-27T07:01:06.936Z,33.33
2023-01-27T07:05:59.865Z,39.05
2023-01-27T07:08:29.175Z,37.08
2023-01-27T07:10:56.559Z,41.88
2023-01-27T07:13:26.079Z,36.70
2023-01-27T07:15:59.074Z,38.08
2023-01-27T07:18:27.528Z,45.25
2023-01-27T07:20:55.742Z,37.53
2023-01-27T07:23:22.945Z,36.70
2023-01-27T07:25:52.733Z,37.70
2023-01-27T07:28:19.732Z,47.08
2023-01-27T07:30:51.388Z,46.08
2023-01-27T07:33:18.352Z,40.90
2023-01-27T07:35:49.889Z,43.45
2023-01-27T07:38:16.996Z,52.08
2023-01-27T07:40:44.076Z,45.35
2023-01-27T07:43:11.740Z,45.08
2023-01-27T07:45:38.608Z,52.85
2023-01-27T07:48:08.593Z,57.13
2023-01-27T07:50:39.168Z,52.42
2023-01-27T07:53:08.130Z,44.70
2023-01-27T07:55:34.958Z,49.88
2023-01-27T07:58:02.153Z,44.92
2023-01-27T08:00:29.619Z,36.95
2023-01-27T08:02:58.323Z,33.60
2023-01-27T08:05:25.592Z,36.35
2023-01-27T08:07:53.674Z,30.67
2023-01-27T08:10:20.668Z,37.50
2023-01-27T08:12:48.139Z,36.22
2023-01-27T08:15:18.657Z,33.90
2023-01-27T08:17:57.849Z,37.45
2023-01-27T08:20:27.304Z,33.90
2023-01-27T08:22:55.370Z,35.38
2023-01-27T08:25:22.977Z,34.40
2023-01-27T08:27:54.526Z,35.95
2023-01-27T08:30:22.723Z,34.15
2023-01-27T08:32:50.199Z,32.63
2023-01-27T08:35:17.292Z,30.80
2023-01-27T08:37:45.719Z,30.23
2023-01-27T08:40:14.329Z,29.83
2023-01-27T08:42:41.315Z,28.95
2023-01-27T08:45:09.343Z,26.58
2023-01-27T08:47:36.115Z,28.50
2023-01-27T08:50:03.059Z,25.80
2023-01-27T08:52:30.947Z,24.92
2023-01-27T08:54:58.594Z,28.25
2023-01-27T08:57:28.992Z,27.65
2023-01-27T08:59:55.881Z,20.20
2023-01-27T09:02:25.269Z,21.92
2023-01-27T09:04:52.320Z,23.75
2023-01-27T09:07:19.702Z,22.88
2023-01-27T09:10:01.032Z,21.92
2023-01-27T09:12:38.734Z,20.80
2023-01-27T09:15:08.089Z,22.23
2023-01-27T09:17:40.043Z,22.73
2023-01-27T09:20:23.819Z,23.20
2023-01-27T09:22:51.099Z,22.73
2023-01-27T09:25:20.789Z,23.45
2023-01-27T09:27:48.829Z,24.58
2023-01-27T09:30:16.929Z,21.35
2023-01-27T09:32:43.956Z,29.35
2023-01-27T09:35:11.586Z,24.17
2023-01-27T09:37:50.048Z,23.75
2023-01-27T09:40:43.622Z,31.02
2023-01-27T09:46:45.644Z,27.60
2023-01-27T09:49:53.429Z,28.33
2023-01-27T09:52:48.352Z,22.90
2023-01-27T09:55:19.363Z,25.92
2023-01-27T09:57:55.817Z,24.88
2023-01-27T10:00:37.924Z,23.42
2023-01-27T10:03:14.072Z,25.58
2023-01-27T10:05:41.033Z,25.27
2023-01-27T10:08:26.519Z,28.00
2023-01-27T10:11:05.827Z,26.17
2023-01-27T10:13:47.669Z,27.55
2023-01-27T10:16:42.353Z,25.00
2023-01-27T10:19:28.294Z,27.98
2023-01-27T10:22:11.691Z,26.58
2023-01-27T10:24:50.389Z,23.55
2023-01-27T10:27:22.920Z,28.10
2023-01-27T10:30:12.537Z,29.60
2023-01-27T10:33:20.742Z,24.42
2023-01-27T10:36:00.359Z,29.25
2023-01-27T10:38:50.634Z,24.70
2023-01-27T10:41:26.579Z,27.25
2023-01-27T10:44:05.622Z,24.77
2023-01-27T10:47:06.992Z,33.22
2023-01-27T10:49:53.728Z,26.00
2023-01-27T10:52:30.269Z,24.08
2023-01-27T10:55:04.312Z,22.75
2023-01-27T10:57:41.427Z,24.83
2023-01-27T11:01:14.018Z,23.58
2023-01-27T11:03:33.411Z,22.40
2023-01-27T11:06:05.101Z,22.10
2023-01-27T11:08:36.425Z,34.75
2023-01-27T11:11:26.499Z,33.90
2023-01-27T11:14:16.920Z,22.55
2023-01-27T11:16:51.803Z,19.90
2023-01-27T11:19:31.448Z,23.48
2023-01-27T11:22:08.615Z,20.75
2023-01-27T11:24:52.011Z,22.13
2023-01-27T11:27:37.957Z,21.95
2023-01-27T11:30:35.364Z,20.48
2023-01-27T11:33:30.242Z,23.23
2023-01-27T11:35:57.369Z,17.60
2023-01-27T11:38:29.442Z,20.30
2023-01-27T11:40:59.697Z,18.70
2023-01-27T11:43:30.115Z,17.77
2023-01-27T11:46:02.863Z,20.00
2023-01-27T11:48:44.908Z,15.75
2023-01-27T11:51:20.496Z,17.73
2023-01-27T11:53:59.389Z,21.33
2023-01-27T11:56:28.465Z,17.23
2023-01-27T11:59:04.981Z,19.08
2023-01-27T12:02:02.822Z,17.30
2023-01-27T12:04:40.524Z,17.85
2023-01-27T12:07:22.364Z,23.73
2023-01-27T12:09:49.926Z,24.98
2023-01-27T12:12:30.828Z,22.98
2023-01-27T12:15:05.176Z,19.77
2023-01-27T12:17:46.297Z,22.33
2023-01-27T12:20:43.652Z,21.75
2023-01-27T12:23:34.276Z,18.65
2023-01-27T12:26:14.139Z,19.08
2023-01-27T12:28:44.006Z,16.10
2023-01-27T12:31:27.477Z,17.67
2023-01-27T12:34:08.367Z,15.60
2023-01-27T12:36:44.239Z,16.00
2023-01-27T12:39:37.621Z,15.88
2023-01-27T12:42:04.713Z,17.77
2023-01-27T12:44:46.649Z,18.73
2023-01-27T12:47:32.536Z,17.10
2023-01-27T12:50:33.910Z,15.38
2023-01-27T12:53:13.995Z,18.95
2023-01-27T12:58:40.996Z,17.33
2023-01-27T13:01:41.636Z,18.00
2023-01-27T13:04:31.597Z,18.55
2023-01-27T13:07:14.501Z,20.13
2023-01-27T13:09:53.588Z,16.67
2023-01-27T13:12:28.423Z,34.78
2023-01-27T13:15:24.262Z,18.95
2023-01-27T13:17:54.049Z,16.52
2023-01-27T13:20:33.902Z,19.67
2023-01-27T13:23:19.448Z,17.58
2023-01-27T13:26:09.287Z,18.30
2023-01-27T13:28:59.547Z,17.00
2023-01-27T13:31:32.586Z,19.48
2023-01-27T13:34:44.090Z,19.48
2023-01-27T13:37:21.408Z,18.05
2023-01-27T13:40:03.361Z,21.27
2023-01-27T13:43:04.149Z,19.42
2023-01-27T13:45:37.904Z,17.02
2023-01-27T13:48:32.903Z,18.50
2023-01-27T13:51:17.348Z,24.80
2023-01-27T13:53:51.277Z,21.20
2023-01-27T13:56:33.662Z,23.25
2023-01-27T13:59:19.967Z,18.63
2023-01-27T14:02:23.545Z,17.23
2023-01-27T14:08:37.071Z,16.60
2023-01-27T14:11:04.762Z,21.27
2023-01-27T14:13:34.562Z,25.92
2023-01-27T14:16:31.826Z,26.42
2023-01-27T14:19:44.113Z,16.30
2023-01-27T14:22:36.978Z,18.23
2023-01-27T14:25:09.777Z,25.02
2023-01-27T14:27:46.075Z,17.40
2023-01-27T14:30:34.247Z,16.98
2023-01-27T14:33:43.798Z,21.67
2023-01-27T14:36:21.384Z,21.15
2023-01-27T14:39:05.276Z,19.83
2023-01-27T14:41:54.128Z,19.98
2023-01-27T14:45:01.066Z,17.20
2023-01-27T14:47:45.952Z,20.83
2023-01-27T14:50:19.030Z,20.60
2023-01-27T14:53:06.107Z,22.30
2023-01-27T14:56:04.242Z,18.00
2023-01-27T14:58:58.653Z,18.80
2023-01-27T15:01:47.213Z,21.33
2023-01-27T15:04:17.040Z,23.63
2023-01-27T15:06:47.821Z,22.65
2023-01-27T15:09:20.752Z,23.48
2023-01-27T15:12:01.492Z,29.20
2023-01-27T15:14:34.463Z,29.67
2023-01-27T15:17:34.647Z,25.30
2023-01-27T15:20:22.776Z,20.95
2023-01-27T15:23:01.579Z,20.25
2023-01-27T15:25:39.471Z,20.85
2023-01-27T15:28:12.056Z,18.15
2023-01-27T15:30:38.922Z,21.15
2023-01-27T15:33:43.409Z,23.02
2023-01-27T15:36:40.490Z,27.15
2023-01-27T15:39:10.578Z,21.65
2023-01-27T15:41:56.433Z,31.27
2023-01-27T15:44:33.176Z,26.17
2023-01-27T15:47:22.328Z,25.85
2023-01-27T15:52:46.547Z,25.60
2023-01-27T15:55:26.900Z,24.38
2023-01-27T15:58:31.579Z,39.65
2023-01-27T16:00:59.688Z,41.38
2023-01-27T16:03:33.464Z,53.50
2023-01-27T16:06:29.500Z,53.03
2023-01-27T16:09:13.139Z,55.05
2023-01-27T16:11:43.490Z,51.90
2023-01-27T16:14:21.250Z,59.83
2023-01-27T16:16:53.388Z,26.88
2023-01-27T16:19:31.429Z,21.15
2023-01-27T16:22:03.857Z,29.80
2023-01-27T16:27:33.707Z,25.25
2023-01-27T16:30:21.739Z,41.97
2023-01-27T16:33:06.609Z,41.33
2023-01-27T16:35:43.794Z,37.92
2023-01-27T16:38:29.108Z,34.90
2023-01-27T16:41:01.568Z,35.95
2023-01-27T16:46:01.919Z,30.98
2023-01-27T16:48:44.090Z,44.15
2023-01-27T16:51:14.064Z,35.55
2023-01-27T16:53:45.823Z,33.97
2023-01-27T16:56:23.354Z,18.80
2023-01-27T16:58:51.712Z,37.85
2023-01-27T17:01:56.545Z,33.70
2023-01-27T17:04:26.933Z,29.80
2023-01-27T17:06:57.666Z,35.40
2023-01-27T17:09:35.232Z,34.85
2023-01-27T17:12:02.353Z,31.02
2023-01-27T17:14:47.630Z,27.45
2023-01-27T17:17:20.902Z,44.38
2023-01-27T17:20:35.159Z,36.13
2023-01-27T17:23:04.014Z,31.88
2023-01-27T17:25:39.726Z,32.72
2023-01-27T17:28:17.634Z,34.72
2023-01-27T17:30:48.241Z,33.40
2023-01-27T17:33:21.942Z,33.58
2023-01-27T17:35:52.492Z,29.52
2023-01-27T17:38:24.782Z,33.42
2023-01-27T17:40:54.307Z,41.10
2023-01-27T17:43:24.121Z,41.35
2023-01-27T17:46:19.944Z,35.50
2023-01-27T17:49:01.308Z,39.28
2023-01-27T17:51:57.647Z,37.75
2023-01-27T17:54:41.702Z,34.38
2023-01-27T17:57:27.184Z,36.88
2023-01-27T17:59:59.964Z,45.33
2023-01-27T18:02:30.141Z,35.00
2023-01-27T18:05:02.501Z,32.05
2023-01-27T18:07:30.051Z,35.45
2023-01-27T18:09:57.413Z,31.67
2023-01-27T18:12:42.279Z,42.28
2023-01-27T18:15:38.168Z,33.40
2023-01-27T18:18:21.780Z,38.05
2023-01-27T18:21:05.055Z,30.80
2023-01-27T18:23:35.004Z,36.90
2023-01-27T18:26:24.144Z,34.40
2023-01-27T18:28:56.333Z,36.33
2023-01-27T18:31:26.268Z,31.63
2023-01-27T18:34:25.056Z,36.40
2023-01-27T18:37:20.748Z,33.58
2023-01-27T18:39:47.749Z,33.83
2023-01-27T18:42:20.256Z,36.17
2023-01-27T18:44:56.949Z,32.85
2023-01-27T18:47:34.864Z,31.55
2023-01-27T18:50:10.705Z,36.28
2023-01-27T18:52:38.215Z,36.80
2023-01-27T18:55:23.607Z,33.70
2023-01-27T18:57:56.035Z,34.47
2023-01-27T19:02:59.019Z,30.38
2023-01-27T19:05:27.471Z,32.28
2023-01-27T19:07:54.481Z,38.33
2023-01-27T19:10:39.321Z,37.05
2023-01-27T19:13:19.273Z,36.40
2023-01-27T19:15:57.310Z,39.00
2023-01-27T19:18:26.371Z,35.42
2023-01-27T19:20:53.340Z,35.65
2023-01-27T19:23:21.589Z,36.17
2023-01-27T19:25:51.375Z,32.45
2023-01-27T19:28:21.312Z,38.60
2023-01-27T19:30:48.275Z,31.73
2023-01-27T19:33:23.851Z,35.28
2023-01-27T19:36:00.131Z,40.72
2023-01-27T19:38:28.941Z,40.00
2023-01-27T19:40:56.147Z,54.78
2023-01-27T19:43:23.094Z,50.75
2023-01-27T19:45:50.922Z,43.13
2023-01-27T19:48:23.551Z,58.33
2023-01-27T19:50:51.560Z,47.10
2023-01-27T19:53:19.798Z,39.42
2023-01-27T19:55:50.505Z,38.67
2023-01-27T19:58:26.300Z,50.85
2023-01-27T20:00:54.662Z,43.45
2023-01-27T20:03:23.118Z,40.15
2023-01-27T20:05:50.176Z,41.85
2023-01-27T20:08:19.408Z,37.42
2023-01-27T20:10:46.516Z,36.92
2023-01-27T20:13:20.759Z,37.40
2023-01-27T20:15:47.943Z,30.88
2023-01-27T20:18:16.441Z,29.50
2023-01-27T20:20:44.348Z,49.38
2023-01-27T20:23:15.496Z,39.42
2023-01-27T20:25:42.776Z,35.03
2023-01-27T20:28:09.934Z,33.78
2023-01-27T20:30:36.945Z,33.38
2023-01-27T20:33:04.503Z,33.08
2023-01-27T20:35:31.735Z,34.55
2023-01-27T20:37:58.655Z,36.53
2023-01-27T20:40:28.232Z,34.05
2023-01-27T20:42:55.758Z,43.05
2023-01-27T20:45:23.516Z,32.55
2023-01-27T20:47:51.988Z,35.92
2023-01-27T20:50:20.910Z,32.13
2023-01-27T20:52:50.978Z,28.48
2023-01-27T20:55:22.538Z,33.15
2023-01-27T20:57:49.488Z,48.83
2023-01-27T21:00:21.383Z,44.85
2023-01-27T21:02:49.424Z,43.33
2023-01-27T21:05:16.950Z,52.33
2023-01-27T21:07:44.115Z,34.92
2023-01-27T21:10:11.782Z,39.38
2023-01-27T21:12:38.723Z,26.38
2023-01-27T21:15:09.747Z,35.92
2023-01-27T21:17:37.426Z,33.83
2023-01-27T21:20:04.570Z,30.60
2023-01-27T21:22:31.691Z,33.90
2023-01-27T21:24:58.744Z,25.38
2023-01-27T21:27:25.743Z,31.90
2023-01-27T21:29:53.299Z,32.72
2023-01-27T21:32:20.465Z,37.67
2023-01-27T21:34:47.280Z,33.97
2023-01-27T21:37:14.108Z,27.13
2023-01-27T21:39:40.908Z,28.45
2023-01-27T21:42:12.659Z,29.77
2023-01-27T21:44:58.120Z,26.77
2023-01-27T21:47:24.970Z,27.13
2023-01-27T21:50:00.565Z,28.83
2023-01-27T21:52:42.263Z,36.17
2023-01-27T21:55:14.533Z,20.07
2023-01-27T22:00:11.039Z,35.17
2023-01-27T22:02:38.326Z,26.52
2023-01-27T22:05:06.129Z,29.65
2023-01-27T22:07:38.296Z,24.10
2023-01-27T22:10:10.809Z,25.67
2023-01-27T22:15:06.858Z,20.45
2023-01-27T22:17:34.892Z,23.05
2023-01-27T22:20:02.667Z,22.17
2023-01-27T22:22:29.520Z,27.85
2023-01-27T22:24:56.442Z,21.73
2023-01-27T22:27:23.649Z,23.20
2023-01-27T22:29:50.574Z,25.30
2023-01-27T22:32:17.493Z,22.08
2023-01-27T22:34:44.601Z,23.95
2023-01-27T22:37:11.491Z,22.00
2023-01-27T22:39:38.284Z,19.27
2023-01-27T22:42:05.193Z,22.20
2023-01-27T22:44:31.971Z,23.80
2023-01-27T22:46:58.860Z,20.42
2023-01-27T22:49:25.659Z,21.00
2023-01-27T22:51:52.564Z,23.50
2023-01-27T22:54:19.587Z,22.05
2023-01-27T22:56:46.533Z,20.20
2023-01-27T22:59:13.786Z,17.83
2023-01-27T23:01:40.795Z,20.33
2023-01-27T23:04:07.746Z,23.75
2023-01-27T23:06:34.603Z,23.05
2023-01-27T23:09:01.465Z,23.90
2023-01-27T23:11:28.469Z,21.13
2023-01-27T23:13:55.549Z,22.92
2023-01-27T23:16:23.506Z,25.35
2023-01-27T23:18:51.967Z,24.45
2023-01-27T23:21:18.865Z,23.38
2023-01-27T23:23:45.917Z,31.48
2023-01-27T23:26:14.743Z,24.95
2023-01-27T23:28:41.579Z,24.42
2023-01-27T23:31:12.909Z,24.33
2023-01-27T23:33:41.569Z,24.48
2023-01-27T23:36:10.146Z,20.67
2023-01-27T23:38:38.051Z,16.77
2023-01-27T23:41:14.383Z,22.83
2023-01-27T23:43:41.342Z,19.60
2023-01-27T23:46:08.242Z,22.45
2023-01-27T23:48:35.245Z,18.00
2023-01-27T23:51:12.459Z,23.05
2023-01-27T23:53:39.303Z,23.00
2023-01-27T23:56:06.791Z,25.52
2023-01-27T23:58:33.688Z,21.73
